createdAt,value
2022-12-15T00:02:21.655Z,30.83
2022-12-15T00:05:07.762Z,31.73
2022-12-15T00:07:54.059Z,35.60
2022-12-15T00:10:39.324Z,37.45
2022-12-15T00:13:32.775Z,35.05
2022-12-15T00:16:18.681Z,31.88
2022-12-15T00:19:04.767Z,34.95
2022-12-15T00:21:50.118Z,33.95
2022-12-15T00:24:35.945Z,32.30
2022-12-15T00:27:21.551Z,32.88
2022-12-15T00:30:06.823Z,33.40
2022-12-15T00:32:52.424Z,33.60
2022-12-15T00:35:37.716Z,30.85
2022-12-15T00:38:31.933Z,33.22
2022-12-15T00:40:59.747Z,35.05
2022-12-15T00:43:35.252Z,33.30
2022-12-15T00:46:21.793Z,33.92
2022-12-15T00:48:48.952Z,33.88
2022-12-15T00:51:16.504Z,32.65
2022-12-15T00:54:02.341Z,38.20
2022-12-15T00:56:47.702Z,35.85
2022-12-15T00:59:34.111Z,37.63
2022-12-15T01:02:20.828Z,35.28
2022-12-15T01:05:06.577Z,36.35
2022-12-15T01:07:51.933Z,31.52
2022-12-15T01:10:38.837Z,35.20
2022-12-15T01:13:24.446Z,37.22
2022-12-15T01:16:10.089Z,37.22
2022-12-15T01:18:55.572Z,35.17
2022-12-15T01:21:25.060Z,37.90
2022-12-15T01:23:52.669Z,37.60
2022-12-15T01:26:19.798Z,31.45
2022-12-15T01:28:46.670Z,40.88
2022-12-15T01:31:13.712Z,37.50
2022-12-15T01:33:42.660Z,32.90
2022-12-15T01:36:10.678Z,38.90
2022-12-15T01:38:37.872Z,36.95
2022-12-15T01:41:09.561Z,39.10
2022-12-15T01:43:38.656Z,38.00
2022-12-15T01:46:05.580Z,36.63
2022-12-15T01:48:46.931Z,37.90
2022-12-15T01:51:19.790Z,38.33
2022-12-15T01:53:59.060Z,39.75
2022-12-15T01:56:31.223Z,38.10
2022-12-15T01:59:04.876Z,33.08
2022-12-15T02:01:31.929Z,33.45
2022-12-15T02:03:58.964Z,41.22
2022-12-15T02:06:28.201Z,43.10
2022-12-15T02:08:57.140Z,40.38
2022-12-15T02:11:35.900Z,38.10
2022-12-15T02:14:05.382Z,39.65
2022-12-15T02:16:39.064Z,34.70
2022-12-15T02:19:27.035Z,37.85
2022-12-15T02:22:22.661Z,35.88
2022-12-15T02:24:52.182Z,35.83
2022-12-15T02:27:47.478Z,38.92
2022-12-15T02:30:33.033Z,38.20
2022-12-15T02:33:27.423Z,43.03
2022-12-15T02:36:04.438Z,38.10
2022-12-15T02:38:35.174Z,42.97
2022-12-15T02:41:04.627Z,41.50
2022-12-15T02:43:36.252Z,38.25
2022-12-15T02:46:27.071Z,39.65
2022-12-15T02:49:03.211Z,39.08
2022-12-15T02:51:44.681Z,43.97
2022-12-15T02:54:24.914Z,43.67
2022-12-15T02:56:54.741Z,41.28
2022-12-15T02:59:44.184Z,39.70
2022-12-15T03:02:13.280Z,42.55
2022-12-15T03:04:42.605Z,44.45
2022-12-15T03:07:10.653Z,44.70
2022-12-15T03:09:37.744Z,40.65
2022-12-15T03:12:05.243Z,46.13
2022-12-15T03:14:32.771Z,43.22
2022-12-15T03:16:59.651Z,38.00
2022-12-15T03:19:26.560Z,42.75
2022-12-15T03:21:53.406Z,48.15
2022-12-15T03:24:20.220Z,38.70
2022-12-15T03:26:50.089Z,42.13
2022-12-15T03:29:18.038Z,43.72
2022-12-15T03:31:45.459Z,38.72
2022-12-15T03:34:12.327Z,40.13
2022-12-15T03:36:39.251Z,40.97
2022-12-15T03:39:06.668Z,42.65
2022-12-15T03:41:33.439Z,42.65
2022-12-15T03:44:00.723Z,39.33
2022-12-15T03:46:27.540Z,42.33
2022-12-15T03:48:54.346Z,41.08
2022-12-15T03:51:21.627Z,39.60
2022-12-15T03:53:49.327Z,44.20
2022-12-15T03:56:17.335Z,43.33
2022-12-15T03:58:44.330Z,47.60
2022-12-15T04:01:28.845Z,43.33
2022-12-15T04:04:00.487Z,44.47
2022-12-15T04:06:29.275Z,44.40
2022-12-15T04:08:56.407Z,44.80
2022-12-15T04:11:23.251Z,48.10
2022-12-15T04:13:50.105Z,41.92
2022-12-15T04:16:20.141Z,43.05
2022-12-15T04:19:08.258Z,41.88
2022-12-15T04:21:35.057Z,52.20
2022-12-15T04:24:20.702Z,42.78
2022-12-15T04:27:05.894Z,44.17
2022-12-15T04:29:51.249Z,46.08
2022-12-15T04:32:36.526Z,49.80
2022-12-15T04:35:22.139Z,50.42
2022-12-15T04:38:07.475Z,48.28
2022-12-15T04:40:53.762Z,45.53
2022-12-15T04:43:39.491Z,48.13
2022-12-15T04:46:25.019Z,45.75
2022-12-15T04:49:10.596Z,43.28
2022-12-15T04:51:55.940Z,48.17
2022-12-15T04:54:41.301Z,43.40
2022-12-15T04:57:26.526Z,44.58
2022-12-15T05:00:12.073Z,44.17
2022-12-15T05:02:57.431Z,40.00
2022-12-15T05:05:42.700Z,43.20
2022-12-15T05:08:27.927Z,47.80
2022-12-15T05:11:13.160Z,43.80
2022-12-15T05:13:58.867Z,40.90
2022-12-15T05:16:44.264Z,42.83
2022-12-15T05:19:29.564Z,41.55
2022-12-15T05:22:14.906Z,37.45
2022-12-15T05:25:00.522Z,41.33
2022-12-15T05:27:45.950Z,43.47
2022-12-15T05:30:31.305Z,46.05
2022-12-15T05:32:58.176Z,41.63
2022-12-15T05:35:25.034Z,44.83
2022-12-15T05:37:51.892Z,44.30
2022-12-15T05:40:18.690Z,44.00
2022-12-15T05:42:50.114Z,48.92
2022-12-15T05:45:17.249Z,45.47
2022-12-15T05:47:44.010Z,47.60
2022-12-15T05:50:10.821Z,49.15
2022-12-15T05:52:37.603Z,52.22
2022-12-15T05:55:05.866Z,47.38
2022-12-15T05:57:32.648Z,45.15
2022-12-15T05:59:59.423Z,48.50
2022-12-15T06:02:28.564Z,44.72
2022-12-15T06:04:55.539Z,42.35
2022-12-15T06:07:22.737Z,47.90
2022-12-15T06:09:49.541Z,45.25
2022-12-15T06:12:16.659Z,46.03
2022-12-15T06:14:43.419Z,63.45
2022-12-15T06:17:10.320Z,51.33
2022-12-15T06:19:37.108Z,48.05
2022-12-15T06:22:04.159Z,45.63
2022-12-15T06:24:31.079Z,45.40
2022-12-15T06:26:57.919Z,47.72
2022-12-15T06:29:24.842Z,48.35
2022-12-15T06:31:51.793Z,46.72
2022-12-15T06:34:18.701Z,47.60
2022-12-15T06:36:45.559Z,46.63
2022-12-15T06:39:15.256Z,44.35
2022-12-15T06:41:43.148Z,47.25
2022-12-15T06:44:14.643Z,45.47
2022-12-15T06:46:41.838Z,45.83
2022-12-15T06:49:09.245Z,50.05
2022-12-15T06:51:36.659Z,45.53
2022-12-15T06:54:03.614Z,43.63
2022-12-15T06:56:35.994Z,47.72
2022-12-15T06:59:04.744Z,46.85
2022-12-15T07:01:32.410Z,49.25
2022-12-15T07:04:01.476Z,43.90
2022-12-15T07:06:31.918Z,49.30
2022-12-15T07:08:59.062Z,43.63
2022-12-15T07:11:25.964Z,45.20
2022-12-15T07:13:53.786Z,47.55
2022-12-15T07:16:22.390Z,43.47
2022-12-15T07:18:49.948Z,43.42
2022-12-15T07:21:17.511Z,45.40
2022-12-15T07:24:00.922Z,49.55
2022-12-15T07:26:28.539Z,54.03
2022-12-15T07:28:56.074Z,47.90
2022-12-15T07:31:23.363Z,51.17
2022-12-15T07:33:52.261Z,52.78
2022-12-15T07:36:19.638Z,47.63
2022-12-15T07:38:50.604Z,51.88
2022-12-15T07:41:19.544Z,51.05
2022-12-15T07:43:47.770Z,50.25
2022-12-15T07:46:15.194Z,48.55
2022-12-15T07:48:42.128Z,48.78
2022-12-15T07:51:17.221Z,44.67
2022-12-15T07:53:50.203Z,44.33
2022-12-15T07:56:20.819Z,43.08
2022-12-15T07:58:48.125Z,47.78
2022-12-15T08:01:15.885Z,49.33
2022-12-15T08:03:43.332Z,44.95
2022-12-15T08:06:13.069Z,40.72
2022-12-15T08:08:40.671Z,48.13
2022-12-15T08:11:13.568Z,49.92
2022-12-15T08:16:29.245Z,49.03
2022-12-15T08:18:57.274Z,50.78
2022-12-15T08:21:24.645Z,56.45
2022-12-15T08:23:51.481Z,51.28
2022-12-15T08:26:20.686Z,52.30
2022-12-15T08:28:50.548Z,45.55
2022-12-15T08:31:20.041Z,51.70
2022-12-15T08:33:47.461Z,46.45
2022-12-15T08:36:16.649Z,47.05
2022-12-15T08:38:45.595Z,46.45
2022-12-15T08:41:23.401Z,47.28
2022-12-15T08:43:51.317Z,48.95
2022-12-15T08:46:20.935Z,47.97
2022-12-15T08:48:48.831Z,44.15
2022-12-15T08:51:16.382Z,43.10
2022-12-15T08:53:43.552Z,47.65
2022-12-15T08:56:15.992Z,48.60
2022-12-15T08:58:43.325Z,51.75
2022-12-15T09:01:19.013Z,47.67
2022-12-15T09:03:50.504Z,40.85
2022-12-15T09:06:20.633Z,42.38
2022-12-15T09:08:48.551Z,45.75
2022-12-15T09:11:17.342Z,44.40
2022-12-15T09:13:44.601Z,44.67
2022-12-15T09:16:14.826Z,42.92
2022-12-15T09:18:47.043Z,42.35
2022-12-15T09:21:14.513Z,43.22
2022-12-15T09:23:42.463Z,46.92
2022-12-15T09:26:12.910Z,44.00
2022-12-15T09:28:40.029Z,40.25
2022-12-15T09:31:15.174Z,54.63
2022-12-15T09:33:43.285Z,39.83
2022-12-15T09:36:13.213Z,42.03
2022-12-15T09:38:42.013Z,41.03
2022-12-15T09:41:09.519Z,43.67
2022-12-15T09:43:46.562Z,42.30
2022-12-15T09:46:26.591Z,41.42
2022-12-15T09:48:55.882Z,41.33
2022-12-15T09:51:34.717Z,45.53
2022-12-15T09:54:02.150Z,41.13
2022-12-15T09:56:49.800Z,42.67
2022-12-15T09:59:25.619Z,42.67
2022-12-15T10:02:21.391Z,43.70
2022-12-15T10:05:00.117Z,55.90
2022-12-15T10:07:42.109Z,45.42
2022-12-15T10:10:24.213Z,42.60
2022-12-15T10:13:02.062Z,43.92
2022-12-15T10:16:07.524Z,44.28
2022-12-15T10:18:57.574Z,38.97
2022-12-15T10:21:29.095Z,38.53
2022-12-15T10:27:51.959Z,39.25
2022-12-15T10:30:19.344Z,37.00
2022-12-15T10:33:03.593Z,43.85
2022-12-15T10:35:36.018Z,39.95
2022-12-15T10:38:05.999Z,41.45
2022-12-15T10:40:50.484Z,39.03
2022-12-15T10:43:25.832Z,42.58
2022-12-15T10:46:20.722Z,45.63
2022-12-15T10:49:21.235Z,42.25
2022-12-15T10:51:57.435Z,42.30
2022-12-15T10:54:32.337Z,49.33
2022-12-15T10:57:03.423Z,52.05
2022-12-15T10:59:37.312Z,52.05
2022-12-15T11:02:25.744Z,48.58
2022-12-15T11:05:16.123Z,49.55
2022-12-15T11:07:46.243Z,44.38
2022-12-15T11:10:22.521Z,47.25
2022-12-15T11:13:16.687Z,45.50
2022-12-15T11:15:51.803Z,45.72
2022-12-15T11:18:39.410Z,44.42
2022-12-15T11:21:17.280Z,44.72
2022-12-15T11:24:13.646Z,38.72
2022-12-15T11:26:40.464Z,43.10
2022-12-15T11:29:16.627Z,43.17
2022-12-15T11:31:45.329Z,41.38
2022-12-15T11:34:18.318Z,41.17
2022-12-15T11:36:48.447Z,40.88
2022-12-15T11:39:18.708Z,39.80
2022-12-15T11:41:53.979Z,40.33
2022-12-15T11:44:39.546Z,34.05
2022-12-15T11:47:31.460Z,34.53
2022-12-15T11:50:26.355Z,29.17
2022-12-15T11:53:25.722Z,30.27
2022-12-15T11:56:07.018Z,32.67
2022-12-15T11:59:15.279Z,32.63
2022-12-15T12:02:03.897Z,28.83
2022-12-15T12:04:50.892Z,29.42
2022-12-15T12:07:23.741Z,27.85
2022-12-15T12:10:14.375Z,25.85
2022-12-15T12:12:52.265Z,29.75
2022-12-15T12:15:30.071Z,29.92
2022-12-15T12:18:07.560Z,25.88
2022-12-15T12:20:42.313Z,27.55
2022-12-15T12:23:29.414Z,28.42
2022-12-15T12:26:15.668Z,28.23
2022-12-15T12:28:50.217Z,27.17
2022-12-15T12:31:52.351Z,24.52
2022-12-15T12:34:45.578Z,28.13
2022-12-15T12:37:34.532Z,31.30
2022-12-15T12:40:07.523Z,26.65
2022-12-15T12:42:42.398Z,29.17
2022-12-15T12:45:13.640Z,27.30
2022-12-15T12:47:44.824Z,24.60
2022-12-15T12:50:20.203Z,26.90
2022-12-15T12:52:57.358Z,24.95
2022-12-15T12:55:26.286Z,27.08
2022-12-15T12:57:54.525Z,27.95
2022-12-15T13:00:29.807Z,26.85
2022-12-15T13:03:17.274Z,25.85
2022-12-15T13:05:46.318Z,27.95
2022-12-15T13:08:15.742Z,25.40
2022-12-15T13:10:45.318Z,26.02
2022-12-15T13:13:32.919Z,29.48
2022-12-15T13:16:12.031Z,28.23
2022-12-15T13:19:03.645Z,25.55
2022-12-15T13:21:45.717Z,29.08
2022-12-15T13:24:56.190Z,27.40
2022-12-15T13:27:24.099Z,25.67
2022-12-15T13:30:07.334Z,24.58
2022-12-15T13:32:36.955Z,24.73
2022-12-15T13:35:32.162Z,27.75
2022-12-15T13:38:03.005Z,25.85
2022-12-15T13:40:51.901Z,24.98
2022-12-15T13:43:27.155Z,24.25
2022-12-15T13:45:59.201Z,22.20
2022-12-15T13:48:56.497Z,22.83
2022-12-15T13:51:26.361Z,21.75
2022-12-15T13:54:18.076Z,22.65
2022-12-15T13:56:50.847Z,22.80
2022-12-15T13:59:25.753Z,21.33
2022-12-15T14:01:53.745Z,22.48
2022-12-15T14:04:21.902Z,23.70
2022-12-15T14:07:01.617Z,24.95
2022-12-15T14:09:35.506Z,23.17
2022-12-15T14:12:05.019Z,24.98
2022-12-15T14:14:37.069Z,24.08
2022-12-15T14:17:09.743Z,26.48
2022-12-15T14:19:42.126Z,22.17
2022-12-15T14:22:29.065Z,23.08
2022-12-15T14:25:18.477Z,20.00
2022-12-15T14:27:45.512Z,19.95
2022-12-15T14:30:29.603Z,22.50
2022-12-15T14:33:07.098Z,23.00
2022-12-15T14:35:49.610Z,25.88
2022-12-15T14:38:44.912Z,28.25
2022-12-15T14:41:22.195Z,31.67
2022-12-15T14:44:36.252Z,28.50
2022-12-15T14:46:38.450Z,29.35
2022-12-15T14:49:07.556Z,28.10
2022-12-15T14:51:43.424Z,29.35
2022-12-15T14:54:32.024Z,30.40
2022-12-15T14:57:21.042Z,30.35
2022-12-15T14:59:49.450Z,33.80
2022-12-15T15:02:26.691Z,30.52
2022-12-15T15:03:09.452Z,40.58
2022-12-15T15:05:05.607Z,32.42
2022-12-15T15:07:33.773Z,29.50
2022-12-15T15:10:02.119Z,31.38
2022-12-15T15:12:45.799Z,32.58
2022-12-15T15:15:19.805Z,32.80
2022-12-15T15:17:52.870Z,31.35
2022-12-15T15:20:27.787Z,30.55
2022-12-15T15:23:12.572Z,30.55
2022-12-15T15:25:41.554Z,32.42
2022-12-15T15:28:18.041Z,30.63
2022-12-15T15:30:50.893Z,35.60
2022-12-15T15:33:19.404Z,33.05
2022-12-15T15:35:53.254Z,33.13
2022-12-15T15:38:23.580Z,32.55
2022-12-15T15:40:56.024Z,35.00
2022-12-15T15:43:24.424Z,35.35
2022-12-15T15:46:08.655Z,32.88
2022-12-15T15:49:09.810Z,32.15
2022-12-15T15:51:37.763Z,35.90
2022-12-15T15:54:13.995Z,35.15
2022-12-15T15:56:41.567Z,36.20
2022-12-15T15:59:28.952Z,32.72
2022-12-15T16:01:56.380Z,34.22
2022-12-15T16:04:24.249Z,67.13
2022-12-15T16:06:52.256Z,71.32
2022-12-15T16:09:19.357Z,61.47
2022-12-15T16:11:46.996Z,104.07
2022-12-15T16:14:16.098Z,96.10
2022-12-15T16:16:44.120Z,79.35
2022-12-15T16:19:12.319Z,69.13
2022-12-15T16:21:40.896Z,52.97
2022-12-15T16:24:17.668Z,48.08
2022-12-15T16:26:50.525Z,42.95
2022-12-15T16:29:20.373Z,39.75
2022-12-15T16:31:47.633Z,33.22
2022-12-15T16:34:20.468Z,36.70
2022-12-15T16:36:47.708Z,39.83
2022-12-15T16:39:25.604Z,37.15
2022-12-15T16:41:54.313Z,61.90
2022-12-15T16:44:22.370Z,38.95
2022-12-15T16:46:49.279Z,37.90
2022-12-15T16:49:16.224Z,51.75
2022-12-15T16:51:46.782Z,44.58
2022-12-15T16:54:26.310Z,51.35
2022-12-15T16:56:58.234Z,43.88
2022-12-15T16:59:33.872Z,43.65
2022-12-15T17:02:02.309Z,41.08
2022-12-15T17:04:29.340Z,35.78
2022-12-15T17:06:56.193Z,34.63
2022-12-15T17:09:25.555Z,59.45
2022-12-15T17:11:52.616Z,43.20
2022-12-15T17:14:19.505Z,34.78
2022-12-15T17:16:46.453Z,50.67
2022-12-15T17:19:19.211Z,49.78
2022-12-15T17:21:50.748Z,48.08
2022-12-15T17:24:20.313Z,52.47
2022-12-15T17:26:47.882Z,44.05
2022-12-15T17:29:21.038Z,48.50
2022-12-15T17:31:48.009Z,38.30
2022-12-15T17:34:35.188Z,40.55
2022-12-15T17:37:05.499Z,34.33
2022-12-15T17:39:35.353Z,39.10
2022-12-15T17:42:03.052Z,39.40
2022-12-15T17:44:36.156Z,40.35
2022-12-15T17:47:06.040Z,37.28
2022-12-15T17:49:35.983Z,42.45
2022-12-15T17:52:11.559Z,36.85
2022-12-15T17:54:38.558Z,35.15
2022-12-15T17:57:05.420Z,43.13
2022-12-15T17:59:32.278Z,43.35
2022-12-15T18:01:59.231Z,41.28
2022-12-15T18:04:26.409Z,39.50
2022-12-15T18:06:58.087Z,36.72
2022-12-15T18:09:28.642Z,42.03
2022-12-15T18:11:55.619Z,36.67
2022-12-15T18:14:23.017Z,29.83
2022-12-15T18:16:50.146Z,31.67
2022-12-15T18:19:16.998Z,29.80
2022-12-15T18:21:43.962Z,31.35
2022-12-15T18:24:13.572Z,30.80
2022-12-15T18:26:40.384Z,29.35
2022-12-15T18:29:17.948Z,31.17
2022-12-15T18:31:47.211Z,28.58
2022-12-15T18:34:17.511Z,36.47
2022-12-15T18:36:44.956Z,35.30
2022-12-15T18:39:23.785Z,33.70
2022-12-15T18:41:52.554Z,32.83
2022-12-15T18:44:28.746Z,32.53
2022-12-15T18:46:55.735Z,35.28
2022-12-15T18:49:23.719Z,31.00
2022-12-15T18:51:50.841Z,31.92
2022-12-15T18:54:20.866Z,37.03
2022-12-15T18:56:48.003Z,34.88
2022-12-15T18:59:16.486Z,34.55
2022-12-15T19:01:48.153Z,32.83
2022-12-15T19:04:15.569Z,42.70
2022-12-15T19:06:43.041Z,44.70
2022-12-15T19:09:22.120Z,58.15
2022-12-15T19:12:08.955Z,55.38
2022-12-15T19:14:41.376Z,76.65
2022-12-15T19:17:31.823Z,102.20
2022-12-15T19:20:17.517Z,50.60
2022-12-15T19:22:46.255Z,57.42
2022-12-15T19:25:26.369Z,48.05
2022-12-15T19:28:01.509Z,35.13
2022-12-15T19:30:41.617Z,35.72
2022-12-15T19:33:10.047Z,35.55
2022-12-15T19:35:38.194Z,37.00
2022-12-15T19:38:05.588Z,42.35
2022-12-15T19:40:34.330Z,48.80
2022-12-15T19:43:02.343Z,44.65
2022-12-15T19:45:31.329Z,34.45
2022-12-15T19:47:59.039Z,35.97
2022-12-15T19:50:33.455Z,33.88
2022-12-15T19:53:03.815Z,36.40
2022-12-15T19:55:33.075Z,37.17
2022-12-15T19:58:01.022Z,38.10
2022-12-15T20:00:28.076Z,36.22
2022-12-15T20:02:55.925Z,34.08
2022-12-15T20:05:25.130Z,33.88
2022-12-15T20:07:53.580Z,36.90
2022-12-15T20:10:31.874Z,38.05
2022-12-15T20:13:00.895Z,37.70
2022-12-15T20:15:27.873Z,40.25
2022-12-15T20:17:57.251Z,38.38
2022-12-15T20:20:26.965Z,36.20
2022-12-15T20:22:56.588Z,37.08
2022-12-15T20:25:32.320Z,38.33
2022-12-15T20:28:02.364Z,72.30
2022-12-15T20:30:33.204Z,46.42
2022-12-15T20:33:02.405Z,37.90
2022-12-15T20:35:33.069Z,35.13
2022-12-15T20:38:02.647Z,33.30
2022-12-15T20:40:30.473Z,35.97
2022-12-15T20:42:57.911Z,33.38
2022-12-15T20:45:26.868Z,36.22
2022-12-15T20:47:55.891Z,32.75
2022-12-15T20:50:32.836Z,30.90
2022-12-15T20:52:59.783Z,41.80
2022-12-15T20:55:26.811Z,46.70
2022-12-15T20:57:53.881Z,35.28
2022-12-15T21:00:21.889Z,42.15
2022-12-15T21:02:49.084Z,45.42
2022-12-15T21:05:24.366Z,41.38
2022-12-15T21:07:51.629Z,37.88
2022-12-15T21:10:20.530Z,31.77
2022-12-15T21:12:49.550Z,30.27
2022-12-15T21:15:22.458Z,30.13
2022-12-15T21:18:08.856Z,29.45
2022-12-15T21:20:41.803Z,31.92
2022-12-15T21:23:22.596Z,37.88
2022-12-15T21:25:49.946Z,38.40
2022-12-15T21:28:17.709Z,34.72
2022-12-15T21:30:44.962Z,37.38
2022-12-15T21:33:12.025Z,32.33
2022-12-15T21:35:40.422Z,40.83
2022-12-15T21:38:20.191Z,40.13
2022-12-15T21:40:46.985Z,42.63
2022-12-15T21:43:13.831Z,46.63
2022-12-15T21:45:40.688Z,43.63
2022-12-15T21:48:27.511Z,49.45
2022-12-15T21:50:54.316Z,40.20
2022-12-15T21:53:21.613Z,43.13
2022-12-15T21:55:48.439Z,45.78
2022-12-15T21:58:24.352Z,46.85
2022-12-15T22:00:51.298Z,47.42
2022-12-15T22:03:21.365Z,43.47
2022-12-15T22:05:48.250Z,46.03
2022-12-15T22:08:22.525Z,42.78
2022-12-15T22:10:52.036Z,48.33
2022-12-15T22:13:23.240Z,48.10
2022-12-15T22:15:54.660Z,44.92
2022-12-15T22:18:22.504Z,43.40
2022-12-15T22:20:50.759Z,45.83
2022-12-15T22:23:18.596Z,40.97
2022-12-15T22:25:47.721Z,43.50
2022-12-15T22:28:21.801Z,41.05
2022-12-15T22:30:52.745Z,40.78
2022-12-15T22:33:24.623Z,41.53
2022-12-15T22:35:53.477Z,40.22
2022-12-15T22:38:23.756Z,43.28
2022-12-15T22:40:53.639Z,42.42
2022-12-15T22:43:31.551Z,41.85
2022-12-15T22:45:59.758Z,40.25
2022-12-15T22:48:31.904Z,40.17
2022-12-15T22:50:59.320Z,37.75
2022-12-15T22:53:29.386Z,41.53
2022-12-15T22:55:56.293Z,41.03
2022-12-15T22:58:33.330Z,37.10
2022-12-15T23:01:01.278Z,41.85
2022-12-15T23:03:29.497Z,41.50
2022-12-15T23:05:57.214Z,43.88
2022-12-15T23:08:24.025Z,45.03
2022-12-15T23:11:09.463Z,46.80
2022-12-15T23:13:36.382Z,41.50
2022-12-15T23:16:23.055Z,43.30
2022-12-15T23:18:55.198Z,47.20
2022-12-15T23:21:23.749Z,45.15
2022-12-15T23:23:50.874Z,48.83
2022-12-15T23:26:20.747Z,45.65
2022-12-15T23:28:47.884Z,39.22
2022-12-15T23:31:14.940Z,46.47
2022-12-15T23:33:41.878Z,42.03
2022-12-15T23:36:09.926Z,39.42
2022-12-15T23:38:36.727Z,37.30
2022-12-15T23:41:03.738Z,35.60
2022-12-15T23:43:33.198Z,34.20
2022-12-15T23:46:07.294Z,36.05
2022-12-15T23:48:38.326Z,38.40
2022-12-15T23:51:09.550Z,41.90
2022-12-15T23:53:37.059Z,46.38
2022-12-15T23:56:18.658Z,41.40
2022-12-15T23:58:46.869Z,46.55
